Time;durP1;ratioP1;P1;durP2;ratioP2;P2;SDS_P1;SDS_P2;PMS_P1;PMS_P2;Temp;Humidity;BMP_temperature;BMP_pressure;BME280_temperature;BME280_humidity;BME280_pressure;Samples;Min_cycle;Max_cycle;Signal;HPM_P1;HPM_P2
2022/09/17 00:00:39;;;;;;;1.27;0.80;;;;;;;8.43;nan;100178.06;4965086;28;20049;-68
2022/09/17 00:03:06;;;;;;;1.05;0.88;;;;;;;8.40;nan;100178.38;4972358;28;20117;-68
2022/09/17 00:05:32;;;;;;;1.75;0.80;;;;;;;8.38;nan;100174.19;4971897;28;20031;-68
2022/09/17 00:07:57;;;;;;;1.55;1.10;;;;;;;8.35;nan;100177.94;4972318;28;20045;-68
2022/09/17 00:10:23;;;;;;;1.88;0.88;;;;;;;8.35;nan;100179.75;4966739;28;20423;-68
2022/09/17 00:12:49;;;;;;;3.53;1.20;;;;;;;8.34;nan;100183.34;4970101;28;20122;-67
2022/09/17 00:15:15;;;;;;;3.13;1.10;;;;;;;8.37;nan;100180.44;4963900;28;20031;-68
2022/09/17 00:17:40;;;;;;;2.80;1.10;;;;;;;8.40;nan;100183.63;4972400;28;20085;-68
2022/09/17 00:20:10;;;;;;;1.77;1.23;;;;;;;8.52;nan;100186.91;4970975;28;20039;-68
2022/09/17 00:22:36;;;;;;;2.60;1.20;;;;;;;8.62;nan;100182.41;4971990;28;20045;-68
2022/09/17 00:25:03;;;;;;;1.63;1.23;;;;;;;8.71;nan;100178.06;4970537;28;20531;-68
2022/09/17 00:27:28;;;;;;;2.47;1.00;;;;;;;8.75;nan;100183.84;4972211;28;20411;-68
2022/09/17 00:29:53;;;;;;;1.27;0.90;;;;;;;8.71;nan;100189.44;4971893;28;20038;-68
2022/09/17 00:32:18;;;;;;;1.65;1.00;;;;;;;8.70;nan;100193.06;4971709;28;20030;-68
2022/09/17 00:34:45;;;;;;;2.10;1.10;;;;;;;8.66;nan;100183.78;4970725;28;20035;-68
2022/09/17 00:37:11;;;;;;;2.28;1.15;;;;;;;8.59;nan;100187.97;4979355;28;20432;-67
2022/09/17 00:39:36;;;;;;;2.17;1.10;;;;;;;8.54;nan;100184.13;4971415;28;20133;-67
2022/09/17 00:42:04;;;;;;;1.70;1.05;;;;;;;8.49;nan;100182.75;4970831;28;20057;-69
2022/09/17 00:44:47;;;;;;;2.03;1.20;;;;;;;8.46;nan;100179.56;4971846;28;20567;-67
2022/09/17 00:47:24;;;;;;;3.15;1.10;;;;;;;8.43;nan;100183.34;4972885;28;20049;-68
2022/09/17 00:49:54;;;;;;;1.15;0.95;;;;;;;8.43;nan;100177.25;4971174;28;20557;-68
2022/09/17 00:52:25;;;;;;;1.40;0.80;;;;;;;8.39;nan;100181.09;4971189;28;20038;-67
2022/09/17 00:55:02;;;;;;;1.65;1.10;;;;;;;8.35;nan;100187.66;4971332;28;20049;-68
2022/09/17 00:57:29;;;;;;;1.50;0.93;;;;;;;8.31;nan;100187.09;4975427;28;20039;-68
2022/09/17 00:59:55;;;;;;;3.30;1.10;;;;;;;8.29;nan;100187.28;4968434;28;20023;-68
2022/09/17 01:02:21;;;;;;;1.65;1.10;;;;;;;8.27;nan;100188.38;4971114;28;20408;-68
2022/09/17 01:04:46;;;;;;;1.85;1.13;;;;;;;8.27;nan;100191.00;4969758;28;20121;-68
2022/09/17 01:07:44;;;;;;;2.20;1.20;;;;;;;8.28;nan;100187.41;4971399;28;20118;-67
2022/09/17 01:10:27;;;;;;;2.55;1.33;;;;;;;8.25;nan;100192.97;4969191;28;20027;-68
2022/09/17 01:13:02;;;;;;;2.05;1.20;;;;;;;8.23;nan;100193.09;4971438;28;20050;-68
2022/09/17 01:15:36;;;;;;;1.95;1.00;;;;;;;8.19;nan;100197.00;4971462;28;20033;-68
2022/09/17 01:18:32;;;;;;;2.85;1.30;;;;;;;8.20;nan;100209.22;4977195;28;20042;-68
2022/09/17 01:21:03;;;;;;;1.15;0.90;;;;;;;8.17;nan;100214.75;4969539;28;20043;-68
2022/09/17 01:23:47;;;;;;;;;;;;;;;8.14;nan;100212.41;4977244;28;20069;-68
2022/09/17 01:26:52;;;;;;;3.72;1.52;;;;;;;8.17;nan;100214.75;4970681;28;20005;-68
2022/09/17 01:29:28;;;;;;;2.28;1.30;;;;;;;8.14;nan;100212.41;4963165;28;20053;-67
2022/09/17 01:32:33;;;;;;;2.42;1.27;;;;;;;8.10;nan;100205.75;4970402;28;20377;-67
2022/09/17 01:35:09;;;;;;;1.65;1.00;;;;;;;8.04;nan;100208.97;4970676;28;20038;-68
2022/09/17 01:37:48;;;;;;;1.25;1.00;;;;;;;8.00;nan;100210.22;4970232;28;20031;-67
2022/09/17 01:40:22;;;;;;;2.03;1.00;;;;;;;7.97;nan;100213.97;4969576;28;20076;-67
2022/09/17 01:43:04;;;;;;;2.15;1.13;;;;;;;7.95;nan;100213.28;4968647;28;20042;-68
2022/09/17 01:45:48;;;;;;;4.47;1.48;;;;;;;7.99;nan;100205.94;4968931;28;20054;-67
2022/09/17 01:48:19;;;;;;;2.97;1.40;;;;;;;7.97;nan;100215.78;4959107;28;20118;-67
2022/09/17 01:50:51;;;;;;;2.08;1.10;;;;;;;7.97;nan;100207.91;4966688;28;20102;-67
2022/09/17 01:53:21;;;;;;;1.55;1.00;;;;;;;7.91;nan;100213.72;4964308;28;20488;-67
2022/09/17 01:55:48;;;;;;;1.38;1.00;;;;;;;7.86;nan;100212.38;4970380;28;20090;-67
2022/09/17 01:58:20;;;;;;;2.53;1.17;;;;;;;7.86;nan;100209.72;4960910;28;20034;-67
2022/09/17 02:00:51;;;;;;;3.25;1.02;;;;;;;7.85;nan;100212.50;4969514;28;20034;-67
2022/09/17 02:03:25;;;;;;;2.50;1.10;;;;;;;7.82;nan;100210.97;4970194;28;20027;-68
2022/09/17 02:06:00;;;;;;;1.80;1.13;;;;;;;7.82;nan;100204.88;4970232;28;20389;-68
2022/09/17 02:08:33;;;;;;;2.63;1.55;;;;;;;7.89;nan;100205.97;4968699;28;20034;-67
2022/09/17 02:11:06;;;;;;;1.95;1.20;;;;;;;7.86;nan;100209.72;4969650;28;20039;-68
2022/09/17 02:13:47;;;;;;;2.15;1.20;;;;;;;7.83;nan;100210.00;4967929;28;20079;-67
2022/09/17 02:16:16;;;;;;;2.10;1.30;;;;;;;7.83;nan;100217.06;4969202;28;20130;-68
2022/09/17 02:18:53;;;;;;;2.40;1.10;;;;;;;7.78;nan;100220.13;4969458;28;20162;-67
2022/09/17 02:21:31;;;;;;;1.83;1.05;;;;;;;7.74;nan;100221.38;4962375;28;20171;-67
2022/09/17 02:24:24;;;;;;;1.00;0.85;;;;;;;7.70;nan;100222.63;4969401;28;20558;-68
2022/09/17 02:27:02;;;;;;;2.45;1.42;;;;;;;7.71;nan;100224.28;4969252;28;20100;-68
2022/09/17 02:29:41;;;;;;;3.13;1.50;;;;;;;7.76;nan;100223.88;4967987;28;20062;-68
2022/09/17 02:32:07;;;;;;;2.28;1.40;;;;;;;7.87;nan;100223.72;4969199;28;20377;-68
2022/09/17 02:34:33;;;;;;;2.67;1.27;;;;;;;7.96;nan;100222.00;4969527;28;20105;-68
2022/09/17 02:36:59;;;;;;;2.03;1.13;;;;;;;8.04;nan;100227.41;4969972;28;20046;-68
2022/09/17 02:39:25;;;;;;;2.67;1.42;;;;;;;8.14;nan;100214.22;4971188;28;20027;-67
2022/09/17 02:42:26;;;;;;;2.33;1.25;;;;;;;8.17;nan;100208.66;4969589;28;20072;-68
2022/09/17 02:45:19;;;;;;;2.40;1.50;;;;;;;8.22;nan;100222.22;4969906;28;20093;-68
2022/09/17 02:47:50;;;;;;;2.97;1.30;;;;;;;8.33;nan;100224.69;4969380;28;20027;-67
2022/09/17 02:50:37;;;;;;;3.33;1.30;;;;;;;8.40;nan;100220.53;4976299;28;20244;-67
2022/09/17 02:53:18;;;;;;;2.67;1.35;;;;;;;8.47;nan;100224.22;4969642;28;20038;-68
2022/09/17 02:56:02;;;;;;;1.35;1.10;;;;;;;8.54;nan;100218.41;4969487;28;20526;-67
2022/09/17 02:59:05;;;;;;;2.80;1.42;;;;;;;8.60;nan;100225.69;4962111;28;20039;-68
2022/09/17 03:01:38;;;;;;;2.35;1.38;;;;;;;8.71;nan;100214.97;4970522;28;20404;-68
2022/09/17 03:04:08;;;;;;;1.60;1.10;;;;;;;8.80;nan;100211.44;4969027;28;20130;-68
2022/09/17 03:06:34;;;;;;;2.97;1.50;;;;;;;8.89;nan;100209.72;4970188;28;20039;-67
2022/09/17 03:08:59;;;;;;;4.03;1.50;;;;;;;8.97;nan;100211.63;4968537;28;20583;-67
2022/09/17 03:11:24;;;;;;;3.85;1.20;;;;;;;9.01;nan;100205.91;4971691;28;20757;-68
2022/09/17 03:13:50;;;;;;;3.10;1.40;;;;;;;9.08;nan;100214.03;4966627;28;20456;-68
2022/09/17 03:16:16;;;;;;;2.13;1.45;;;;;;;9.10;nan;100215.53;4969062;28;20066;-67
2022/09/17 03:18:41;;;;;;;1.83;1.10;;;;;;;9.14;nan;100222.19;4959721;28;20031;-68
2022/09/17 03:21:07;;;;;;;2.13;1.10;;;;;;;9.17;nan;100226.31;4970044;28;20512;-68
2022/09/17 03:23:32;;;;;;;2.40;1.25;;;;;;;9.21;nan;100214.50;4966791;28;20035;-68
2022/09/17 03:25:58;;;;;;;1.50;1.00;;;;;;;9.25;nan;100213.22;4969119;28;20039;-68
2022/09/17 03:28:25;;;;;;;2.33;1.10;;;;;;;9.31;nan;100214.41;4968481;28;20097;-68
2022/09/17 03:30:51;;;;;;;3.00;1.23;;;;;;;9.35;nan;100207.88;4975931;28;20042;-67
2022/09/17 03:33:16;;;;;;;3.47;1.13;;;;;;;9.38;nan;100212.84;4969075;28;20085;-68
2022/09/17 03:35:45;;;;;;;1.55;1.00;;;;;;;9.40;nan;100210.88;4967724;28;20448;-68
2022/09/17 03:38:11;;;;;;;3.65;1.23;;;;;;;9.42;nan;100208.91;4968056;28;20066;-68
2022/09/17 03:40:37;;;;;;;4.20;1.48;;;;;;;9.43;nan;100215.84;4966191;28;20035;-68
2022/09/17 03:43:03;;;;;;;1.67;1.20;;;;;;;9.42;nan;100219.47;4967293;28;20034;-68
2022/09/17 03:45:29;;;;;;;3.05;1.30;;;;;;;9.45;nan;100215.69;4968513;28;20102;-68
2022/09/17 03:47:55;;;;;;;5.57;1.55;;;;;;;9.44;nan;100225.44;4966516;28;20142;-68
2022/09/17 03:50:21;;;;;;;4.00;1.30;;;;;;;9.46;nan;100212.91;4968004;28;20170;-67
2022/09/17 03:52:46;;;;;;;2.40;1.27;;;;;;;9.49;nan;100222.34;4968187;28;20562;-68
2022/09/17 03:55:12;;;;;;;3.85;1.55;;;;;;;9.51;nan;100226.47;4968573;28;20432;-67
2022/09/17 03:57:37;;;;;;;2.92;1.30;;;;;;;9.54;nan;100230.63;4961596;28;20487;-68
2022/09/17 04:00:03;;;;;;;2.45;1.30;;;;;;;9.54;nan;100230.63;4963616;28;20057;-68
2022/09/17 04:02:29;;;;;;;4.88;1.50;;;;;;;9.56;nan;100239.22;4962715;28;20407;-67
2022/09/17 04:04:54;;;;;;;3.47;1.60;;;;;;;9.56;nan;100224.22;4965824;28;20041;-68
2022/09/17 04:07:19;;;;;;;4.00;1.40;;;;;;;9.57;nan;100231.13;4963083;28;20790;-68
2022/09/17 04:09:44;;;;;;;4.03;1.42;;;;;;;9.59;nan;100243.38;4968110;28;20038;-67
2022/09/17 04:12:10;;;;;;;2.10;1.30;;;;;;;9.58;nan;100242.50;4966516;28;20500;-68
2022/09/17 04:14:35;;;;;;;2.35;1.33;;;;;;;9.60;nan;100243.19;4970808;28;20279;-68
2022/09/17 04:17:01;;;;;;;1.50;1.20;;;;;;;9.59;nan;100231.00;4967522;28;20059;-68
2022/09/17 04:19:26;;;;;;;2.42;1.15;;;;;;;9.63;nan;100239.41;4968297;28;20274;-68
2022/09/17 04:21:51;;;;;;;2.60;1.20;;;;;;;9.63;nan;100244.69;4970456;28;20086;-68
2022/09/17 04:24:17;;;;;;;3.33;1.40;;;;;;;9.64;nan;100239.28;4965660;28;20403;-68
2022/09/17 04:26:42;;;;;;;2.50;1.40;;;;;;;9.63;nan;100240.28;4972489;28;20035;-68
2022/09/17 04:29:08;;;;;;;2.60;1.35;;;;;;;9.64;nan;100239.28;4965665;28;20450;-68
2022/09/17 04:31:34;;;;;;;2.67;1.40;;;;;;;9.64;nan;100239.28;4971814;28;20037;-68
2022/09/17 04:33:59;;;;;;;2.25;1.40;;;;;;;9.56;nan;100242.69;4972881;28;20042;-68
2022/09/17 04:36:24;;;;;;;2.13;1.33;;;;;;;9.47;nan;100240.13;4971396;28;20113;-67
2022/09/17 04:38:50;;;;;;;3.85;1.42;;;;;;;9.33;nan;100244.13;4970403;28;20086;-68
2022/09/17 04:41:15;;;;;;;2.53;1.50;;;;;;;9.32;nan;100245.13;4971715;28;20596;-68
2022/09/17 04:43:40;;;;;;;3.80;1.43;;;;;;;9.32;nan;100255.66;4972286;28;20048;-67
2022/09/17 04:46:05;;;;;;;1.83;1.30;;;;;;;9.28;nan;100254.31;4969900;28;20278;-67
2022/09/17 04:48:31;;;;;;;2.63;1.40;;;;;;;9.30;nan;100257.63;4976625;28;20310;-68
2022/09/17 04:50:56;;;;;;;2.78;1.42;;;;;;;9.36;nan;100257.84;4973700;28;20039;-68
2022/09/17 04:53:21;;;;;;;2.42;1.10;;;;;;;9.38;nan;100262.16;4973243;28;20077;-67
2022/09/17 04:55:46;;;;;;;2.13;1.30;;;;;;;9.30;nan;100266.38;4973475;28;20392;-68
2022/09/17 04:58:12;;;;;;;2.90;1.17;;;;;;;9.29;nan;100262.06;4969967;28;20435;-68
2022/09/17 05:00:37;;;;;;;2.47;1.27;;;;;;;9.32;nan;100267.06;4969356;28;20287;-68
2022/09/17 05:03:03;;;;;;;2.75;1.15;;;;;;;9.36;nan;100259.66;4971342;28;20359;-68
2022/09/17 05:05:28;;;;;;;2.05;1.00;;;;;;;9.40;nan;100262.84;4969528;28;20389;-67
2022/09/17 05:07:53;;;;;;;2.15;1.08;;;;;;;9.35;nan;100266.75;4970015;28;20511;-67
2022/09/17 05:10:20;;;;;;;1.63;1.10;;;;;;;9.33;nan;100267.88;4970614;28;20058;-67
2022/09/17 05:12:50;;;;;;;2.25;1.00;;;;;;;9.31;nan;100273.28;4969603;28;20496;-67
2022/09/17 05:15:15;;;;;;;2.83;0.98;;;;;;;9.35;nan;100268.56;4968293;28;20081;-67
2022/09/17 05:17:40;;;;;;;1.83;1.13;;;;;;;9.37;nan;100266.59;4971680;28;20270;-67
2022/09/17 05:20:06;;;;;;;2.55;1.25;;;;;;;9.36;nan;100271.03;4971153;28;20049;-67
2022/09/17 05:22:31;;;;;;;2.22;1.00;;;;;;;9.33;nan;100273.16;4970533;28;20046;-68
2022/09/17 05:24:56;;;;;;;3.67;1.33;;;;;;;9.31;nan;100270.66;4970834;28;20051;-67
2022/09/17 05:27:22;;;;;;;3.37;1.20;;;;;;;9.33;nan;100279.25;4970953;28;20334;-67
2022/09/17 05:29:47;;;;;;;3.08;1.35;;;;;;;9.38;nan;100281.44;4971073;28;20629;-67
2022/09/17 05:32:12;;;;;;;1.50;1.00;;;;;;;9.39;nan;100280.47;4970015;28;20035;-68
2022/09/17 05:34:38;;;;;;;5.17;1.67;;;;;;;9.39;nan;100285.75;4970012;28;20282;-67
2022/09/17 05:37:03;;;;;;;3.70;1.30;;;;;;;9.34;nan;100280.94;4971108;28;20271;-67
2022/09/17 05:39:28;;;;;;;2.20;1.30;;;;;;;9.35;nan;100279.13;4969042;28;20042;-67
2022/09/17 05:41:54;;;;;;;4.00;1.52;;;;;;;9.27;nan;100289.56;4970949;28;20073;-67
2022/09/17 05:44:20;;;;;;;3.80;1.38;;;;;;;9.28;nan;100288.59;4969052;28;20041;-67
2022/09/17 05:46:46;;;;;;;2.60;1.30;;;;;;;9.31;nan;100299.69;4966892;28;20501;-67
2022/09/17 05:49:13;;;;;;;3.15;1.45;;;;;;;9.36;nan;100307.16;4970246;28;20074;-67
2022/09/17 05:51:39;;;;;;;2.90;1.17;;;;;;;9.41;nan;100302.25;4968751;28;20026;-67
2022/09/17 05:54:05;;;;;;;4.82;1.20;;;;;;;9.44;nan;100303.75;4969759;28;20093;-68
2022/09/17 05:56:30;;;;;;;3.53;1.40;;;;;;;9.45;nan;100300.97;4967543;28;20085;-67
2022/09/17 05:58:56;;;;;;;2.55;1.50;;;;;;;9.44;nan;100301.13;4967418;28;20043;-67
2022/09/17 06:01:21;;;;;;;2.92;1.30;;;;;;;9.46;nan;100302.66;4968874;28;20467;-67
2022/09/17 06:03:47;;;;;;;2.17;1.20;;;;;;;9.50;nan;100309.28;4970236;28;20027;-67
2022/09/17 06:06:12;;;;;;;2.42;1.10;;;;;;;9.52;nan;100307.31;4967283;28;20063;-67
2022/09/17 06:08:37;;;;;;;2.65;1.10;;;;;;;9.54;nan;100313.28;4968500;28;20077;-67
2022/09/17 06:11:04;;;;;;;2.08;1.17;;;;;;;9.55;nan;100301.72;4968366;28;20047;-67
2022/09/17 06:13:30;;;;;;;3.50;1.27;;;;;;;9.65;nan;100308.75;4970386;28;20431;-67
2022/09/17 06:15:55;;;;;;;1.98;1.15;;;;;;;9.75;nan;100314.81;4963055;28;20118;-67
2022/09/17 06:18:21;;;;;;;2.08;1.10;;;;;;;9.87;nan;100313.56;4968145;28;20037;-67
2022/09/17 06:21:01;;;;;;;2.58;1.10;;;;;;;9.98;nan;100313.31;4968528;28;20042;-67
2022/09/17 06:23:27;;;;;;;2.33;1.30;;;;;;;9.95;nan;100315.44;4964364;28;20034;-67
2022/09/17 06:25:54;;;;;;;3.13;1.45;;;;;;;9.89;nan;100316.03;4964900;28;20036;-67
2022/09/17 06:28:20;;;;;;;3.72;1.60;;;;;;;9.87;nan;100315.41;4969722;28;20035;-67
2022/09/17 06:30:45;;;;;;;3.78;1.60;;;;;;;9.90;nan;100321.19;4968415;28;20047;-67
2022/09/17 06:33:11;;;;;;;3.60;1.80;;;;;;;10.00;nan;100318.47;4969605;28;20031;-67
2022/09/17 06:35:36;;;;;;;3.60;1.70;;;;;;;10.06;nan;100317.00;4969862;28;20049;-67
2022/09/17 06:38:03;;;;;;;3.47;1.58;;;;;;;10.07;nan;100318.69;4969546;28;20045;-67
2022/09/17 06:40:29;;;;;;;2.88;1.38;;;;;;;10.03;nan;100322.59;4969274;28;20113;-67
2022/09/17 06:42:58;;;;;;;4.03;1.20;;;;;;;10.12;nan;100329.59;4968752;28;20130;-67
2022/09/17 06:45:25;;;;;;;3.38;1.63;;;;;;;10.23;nan;100328.56;4969650;28;20038;-67
2022/09/17 06:47:51;;;;;;;3.58;1.90;;;;;;;10.30;nan;100327.81;4969899;28;20046;-67
2022/09/17 06:50:16;;;;;;;3.40;1.50;;;;;;;10.39;nan;100332.16;4968456;28;20042;-67
2022/09/17 06:52:49;;;;;;;2.00;1.38;;;;;;;10.49;nan;100331.22;4975695;28;20344;-67
2022/09/17 06:55:15;;;;;;;4.43;1.60;;;;;;;10.60;nan;100334.41;4969605;28;20031;-67
2022/09/17 06:57:40;;;;;;;2.92;1.50;;;;;;;10.75;nan;100328.53;4969703;28;20061;-67
2022/09/17 07:00:06;;;;;;;2.17;1.30;;;;;;;10.87;nan;100323.81;4969097;28;20235;-67
2022/09/17 07:02:31;;;;;;;4.70;1.50;;;;;;;11.00;nan;100332.97;4970034;28;20117;-67
2022/09/17 07:04:57;;;;;;;9.45;1.80;;;;;;;11.03;nan;100329.16;4965996;28;20079;-67
2022/09/17 07:07:22;;;;;;;2.30;1.20;;;;;;;11.05;nan;100317.44;4969153;28;20033;-67
2022/09/17 07:09:47;;;;;;;2.67;1.23;;;;;;;11.14;nan;100322.78;4967650;28;20050;-67
2022/09/17 07:12:13;;;;;;;2.92;1.30;;;;;;;11.21;nan;100324.59;4972849;28;20822;-67
2022/09/17 07:14:38;;;;;;;3.22;1.50;;;;;;;11.22;nan;100320.13;4969311;28;20099;-67
2022/09/17 07:17:03;;;;;;;3.15;1.42;;;;;;;11.40;nan;100320.03;4972729;28;20058;-67
2022/09/17 07:19:28;;;;;;;5.30;1.67;;;;;;;11.48;nan;100320.03;4968733;28;20105;-68
2022/09/17 07:21:54;;;;;;;2.78;1.45;;;;;;;11.34;nan;100321.50;4968740;28;20044;-67
2022/09/17 07:24:19;;;;;;;3.58;1.50;;;;;;;11.23;nan;100327.94;4968932;28;20031;-68
2022/09/17 07:26:44;;;;;;;3.00;1.20;;;;;;;11.31;nan;100326.28;4969301;28;20504;-67
2022/09/17 07:29:11;;;;;;;2.73;1.23;;;;;;;11.34;nan;100331.25;4968970;28;20274;-67
2022/09/17 07:31:36;;;;;;;2.65;1.38;;;;;;;11.46;nan;100327.31;4968865;28;20361;-68
2022/09/17 07:34:01;;;;;;;3.25;1.77;;;;;;;11.47;nan;100336.94;4973577;28;20162;-67
2022/09/17 07:36:27;;;;;;;3.83;1.67;;;;;;;11.49;nan;100334.94;4962431;28;20050;-68
2022/09/17 07:38:52;;;;;;;5.50;1.50;;;;;;;11.54;nan;100337.94;4968365;28;20046;-67
2022/09/17 07:41:17;;;;;;;1.85;1.20;;;;;;;11.55;nan;100346.69;4968888;28;20034;-67
2022/09/17 07:43:43;;;;;;;3.60;1.70;;;;;;;11.61;nan;100352.19;4962598;28;20050;-68
2022/09/17 07:46:16;;;;;;;4.57;1.75;;;;;;;11.83;nan;100347.25;4968696;28;20039;-68
2022/09/17 07:48:42;;;;;;;5.15;1.70;;;;;;;12.09;nan;100352.41;4968754;28;20551;-67
2022/09/17 07:51:07;;;;;;;2.72;1.20;;;;;;;12.48;nan;100349.06;4968207;28;20499;-67
2022/09/17 07:53:32;;;;;;;;;;;;;;;12.72;nan;100345.53;4968146;28;20086;-68
2022/09/17 07:55:59;;;;;;;3.00;1.50;;;;;;;12.88;nan;100347.31;4969583;28;19956;-67
2022/09/17 07:58:35;;;;;;;2.10;1.13;;;;;;;12.99;nan;100343.44;4969161;28;20793;-67
2022/09/17 08:01:03;;;;;;;3.30;1.23;;;;;;;13.21;nan;100344.53;4969356;28;20408;-68
2022/09/17 08:03:29;;;;;;;3.17;1.00;;;;;;;13.50;nan;100347.38;4969765;28;20420;-68
2022/09/17 08:06:02;;;;;;;2.33;0.90;;;;;;;13.83;nan;100341.84;4969993;28;20400;-68
2022/09/17 08:08:29;;;;;;;6.15;1.88;;;;;;;13.95;nan;100347.56;4954183;28;20113;-68
2022/09/17 08:10:58;;;;;;;4.90;1.45;;;;;;;13.89;nan;100337.66;4972299;28;20039;-68
2022/09/17 08:13:24;;;;;;;;;;;;;;;13.95;nan;100339.59;4966008;28;20118;-68
2022/09/17 08:15:49;;;;;;;;;;;;;;;14.78;nan;100351.16;4969786;28;20060;-68
2022/09/17 08:18:15;;;;;;;3.70;1.27;;;;;;;15.47;nan;100345.47;4969062;28;19918;-68
2022/09/17 08:20:41;;;;;;;3.03;1.00;;;;;;;15.77;nan;100340.88;4966722;28;20419;-68
2022/09/17 08:23:06;;;;;;;2.73;1.20;;;;;;;15.71;nan;100346.97;4970626;28;21096;-68
2022/09/17 08:25:31;;;;;;;;;;;;;;;15.33;nan;100339.16;4966479;28;20038;-68
2022/09/17 08:27:57;;;;;;;6.30;1.30;;;;;;;14.69;nan;100350.41;4971824;28;19918;-68
2022/09/17 08:30:22;;;;;;;6.40;1.42;;;;;;;14.82;nan;100347.91;4966173;28;20424;-68
2022/09/17 08:32:47;;;;;;;2.97;0.93;;;;;;;16.18;nan;100355.38;4971066;28;20583;-68
2022/09/17 08:35:15;;;;;;;4.05;1.10;;;;;;;17.11;nan;100348.00;4970310;28;20265;-68
2022/09/17 08:37:41;;;;;;;4.45;1.20;;;;;;;17.36;nan;100348.31;4970765;28;20260;-68
2022/09/17 08:40:16;;;;;;;2.83;0.90;;;;;;;17.74;nan;100345.13;4970574;28;20568;-69
2022/09/17 08:42:56;;;;;;;4.95;1.30;;;;;;;17.47;nan;100353.06;4970463;28;20496;-68
2022/09/17 08:45:21;;;;;;;3.03;1.10;;;;;;;17.38;nan;100356.94;4970179;28;20039;-66
2022/09/17 08:47:48;;;;;;;2.67;1.00;;;;;;;17.78;nan;100347.19;4971951;28;20524;-66
2022/09/17 08:50:19;;;;;;;3.60;1.20;;;;;;;17.76;nan;100351.09;4969617;28;20038;-66
2022/09/17 08:53:10;;;;;;;3.40;0.90;;;;;;;17.31;nan;100343.56;4970027;28;20582;-66
2022/09/17 08:56:00;;;;;;;4.60;1.30;;;;;;;16.76;nan;100350.69;4960176;28;20321;-69
2022/09/17 08:58:36;;;;;;;2.85;1.08;;;;;;;16.43;nan;100342.47;4964629;28;20055;-68
2022/09/17 09:01:04;;;;;;;3.70;1.25;;;;;;;16.00;nan;100345.19;4964638;28;20042;-69
2022/09/17 09:03:45;;;;;;;5.53;1.50;;;;;;;15.66;nan;100339.50;4972126;28;20038;-68
2022/09/17 09:06:12;;;;;;;;;;;;;;;15.10;nan;100341.94;4969124;28;20038;-65
2022/09/17 09:08:58;;;;;;;3.70;1.20;;;;;;;14.22;nan;100348.84;4970206;28;19933;-68
2022/09/17 09:11:26;;;;;;;5.50;1.35;;;;;;;13.76;nan;100355.00;4966162;28;20158;-68
2022/09/17 09:14:20;;;;;;;3.45;1.10;;;;;;;13.59;nan;100353.47;4969234;28;20101;-67
2022/09/17 09:16:48;;;;;;;3.58;1.30;;;;;;;13.38;nan;100349.59;4955938;28;20422;-67
2022/09/17 09:19:24;;;;;;;4.18;1.20;;;;;;;13.25;nan;100351.13;4966677;28;20413;-67
2022/09/17 09:22:04;;;;;;;5.07;1.40;;;;;;;14.22;nan;100343.53;4973939;28;20522;-67
2022/09/17 09:24:35;;;;;;;4.15;1.52;;;;;;;;;;4970444;28;20039;-68
2022/09/17 09:27:00;;;;;;;4.53;1.10;;;;;;;16.35;nan;100141.44;4970489;28;20412;-68
2022/09/17 09:29:25;;;;;;;3.93;1.00;;;;;;;;;;4971333;28;20558;-68
2022/09/17 09:32:09;;;;;;;4.93;1.37;;;;;;;15.97;nan;100130.38;4970937;28;20799;-68
2022/09/17 09:34:35;;;;;;;6.00;1.40;;;;;;;;;;4966278;28;20043;-68
2022/09/17 09:37:26;;;;;;;2.40;0.90;;;;;;;18.71;nan;100354.41;4971334;28;20047;-68
2022/09/17 09:39:55;;;;;;;4.30;1.27;;;;;;;20.71;nan;100353.22;4978454;28;20484;-68
2022/09/17 09:42:31;;;;;;;4.50;1.30;;;;;;;21.57;nan;100351.38;4970334;28;20370;-66
2022/09/17 09:45:00;;;;;;;3.25;1.05;;;;;;;22.51;nan;100343.47;4970557;28;20062;-66
2022/09/17 09:48:06;;;;;;;4.20;1.15;;;;;;;23.45;nan;100339.75;4965527;28;20558;-66
2022/09/17 09:50:49;;;;;;;3.70;1.27;;;;;;;24.62;nan;100335.47;4961219;28;20062;-66
2022/09/17 09:53:34;;;;;;;3.15;0.90;;;;;;;24.13;nan;100336.09;4962673;28;20037;-67
2022/09/17 09:56:04;;;;;;;4.20;1.20;;;;;;;22.11;nan;100201.41;4968753;28;20478;-66
2022/09/17 09:58:38;;;;;;;4.10;1.20;;;;;;;20.77;nan;100170.41;4969489;28;20039;-66
2022/09/17 10:01:13;;;;;;;6.20;1.00;;;;;;;19.94;nan;100176.34;4963201;28;20043;-66
2022/09/17 10:03:40;;;;;;;3.08;1.00;;;;;;;19.07;nan;100160.13;4969456;28;20392;-66
2022/09/17 10:06:10;;;;;;;4.78;1.20;;;;;;;18.24;nan;100140.31;4964822;28;20035;-69
2022/09/17 10:08:38;;;;;;;4.45;1.13;;;;;;;17.56;nan;100137.97;4969079;28;20038;-68
2022/09/17 10:11:05;;;;;;;4.88;1.40;;;;;;;17.48;nan;100151.56;4967303;28;20054;-68
2022/09/17 10:13:34;;;;;;;4.30;1.10;;;;;;;17.57;nan;100144.97;4962763;28;20042;-68
2022/09/17 10:16:17;;;;;;;3.67;1.10;;;;;;;17.01;nan;100137.34;4969464;28;20035;-68
2022/09/17 10:18:43;;;;;;;3.05;0.85;;;;;;;17.69;nan;100130.97;4965848;28;20034;-68
2022/09/17 10:21:33;;;;;;;3.50;0.90;;;;;;;19.12;nan;100133.50;4965498;28;20032;-66
2022/09/17 10:24:01;;;;;;;2.40;0.90;;;;;;;19.21;nan;100167.03;4967770;28;20512;-69
2022/09/17 10:26:29;;;;;;;3.47;1.08;;;;;;;20.41;nan;100198.13;4968109;28;20843;-69
2022/09/17 10:28:58;;;;;;;3.13;0.90;;;;;;;19.83;nan;100159.13;4969421;28;20035;-66
2022/09/17 10:31:23;;;;;;;3.67;1.00;;;;;;;;;;4968441;28;20042;-66
2022/09/17 10:33:57;;;;;;;3.83;1.10;;;;;;;17.70;nan;100138.78;4966013;28;20110;-69
2022/09/17 10:36:39;;;;;;;4.03;1.17;;;;;;;;;;4962004;28;20057;-69
2022/09/17 10:39:23;;;;;;;3.67;1.02;;;;;;;;;;4969650;28;20041;-66
2022/09/17 10:42:12;;;;;;;4.15;1.00;;;;;;;24.24;nan;100210.09;4968148;28;20061;-67
2022/09/17 10:44:38;;;;;;;4.25;1.20;;;;;;;;;;4952052;28;20039;-66
2022/09/17 10:47:16;;;;;;;4.00;1.30;;;;;;;21.31;nan;100274.50;4969687;28;20038;-66
2022/09/17 10:49:47;;;;;;;3.45;1.13;;;;;;;19.20;nan;100160.03;4964612;28;20031;-66
2022/09/17 10:52:12;;;;;;;3.45;0.82;;;;;;;;;;4968446;28;20039;-68
2022/09/17 10:54:51;;;;;;;3.70;1.00;;;;;;;16.25;nan;100114.28;4960308;28;20049;-69
2022/09/17 10:57:23;;;;;;;;;;;;;;;15.58;nan;100107.75;4969699;28;20056;-66
2022/09/17 10:59:48;;;;;;;;;;;;;;;;;;4966915;28;19942;-66
2022/09/17 11:02:51;;;;;;;4.78;1.00;;;;;;;14.24;nan;100349.47;4967093;28;20033;-69
2022/09/17 11:05:25;;;;;;;4.07;1.17;;;;;;;13.76;nan;100348.88;4967723;28;20693;-68
2022/09/17 11:08:09;;;;;;;3.08;0.90;;;;;;;13.59;nan;100346.31;4968007;28;20049;-69
2022/09/17 11:10:34;;;;;;;5.05;1.33;;;;;;;13.32;nan;100346.81;4967238;28;20066;-68
2022/09/17 11:13:02;;;;;;;3.77;0.97;;;;;;;13.25;nan;100345.81;4962207;28;20039;-69
2022/09/17 11:15:32;;;;;;;2.13;0.82;;;;;;;13.38;nan;100341.63;4969254;28;20460;-68
2022/09/17 11:18:21;;;;;;;3.42;1.08;;;;;;;13.60;nan;100337.34;4967813;28;20108;-69
2022/09/17 11:21:08;;;;;;;1.85;0.90;;;;;;;13.95;nan;100342.25;4966900;28;20475;-69
2022/09/17 11:24:06;;;;;;;2.83;0.90;;;;;;;14.30;nan;100339.94;4961264;28;20037;-69
2022/09/17 11:26:31;;;;;;;2.80;0.90;;;;;;;;;;4968445;28;20065;-68
2022/09/17 11:29:02;;;;;;;2.67;0.80;;;;;;;;;;4965222;28;20846;-68
2022/09/17 11:31:46;;;;;;;1.83;0.70;;;;;;;;;;4969570;28;20479;-68
2022/09/17 11:34:29;;;;;;;2.78;1.00;;;;;;;;;;4971836;28;20035;-68
2022/09/17 11:37:02;;;;;;;2.58;1.00;;;;;;;;;;4971769;28;20512;-68
2022/09/17 11:39:33;;;;;;;2.30;0.80;;;;;;;;;;4965180;28;20043;-68
2022/09/17 11:41:59;;;;;;;3.53;0.90;;;;;;;;;;4972621;28;20071;-68
2022/09/17 11:44:24;;;;;;;4.20;1.10;;;;;;;17.24;nan;100136.97;4965685;28;20404;-69
2022/09/17 11:46:57;;;;;;;2.20;0.77;;;;;;;17.29;nan;100131.00;4972681;28;20031;-69
2022/09/17 11:49:32;;;;;;;3.85;1.20;;;;;;;;;;4971138;28;20464;-69
2022/09/17 11:52:06;;;;;;;2.05;0.73;;;;;;;17.13;nan;100117.00;4972133;28;20070;-69
2022/09/17 11:54:41;;;;;;;2.15;0.80;;;;;;;17.36;nan;100121.13;4967599;28;20065;-68
2022/09/17 11:57:12;;;;;;;4.78;1.02;;;;;;;;;;4972460;28;20031;-68
2022/09/17 12:00:06;;;;;;;2.13;0.93;;;;;;;17.74;nan;100129.31;4970865;28;20031;-69
2022/09/17 12:02:41;;;;;;;4.05;0.80;;;;;;;17.90;nan;100132.59;4964215;28;20449;-69
2022/09/17 12:05:08;;;;;;;2.70;0.90;;;;;;;;;;4968225;28;20043;-69
2022/09/17 12:07:49;;;;;;;4.20;1.30;;;;;;;17.62;nan;100109.59;4972971;28;20069;-69
2022/09/17 12:10:14;;;;;;;2.45;0.88;;;;;;;17.53;nan;100117.00;4970141;28;20585;-66
2022/09/17 12:12:48;;;;;;;2.80;1.00;;;;;;;17.38;nan;100103.84;4970424;28;20093;-69
2022/09/17 12:15:21;;;;;;;1.58;0.80;;;;;;;;;;4971900;28;20448;-66